Kamakuramaru — JG5731 — position and weather

sailwx.info

Track history (hours):
 
Tides and Currents Weather Stations Pressure Air Temp Water Temp Dewpoint Dewpoint Depression Visibility Wind Speed Wind Dir Waves Ship Positions

Kamakuramaru

Last reported at 2014-Nov-27 03:34 UTC. Time now 2014-Nov-27 04:29 UTC.
Position N 35°29' E 139°39'.

Length 31 m; draft 2.5 m.

Type: Tug. MMSI: 431000439.

Date/timePositionNaut miles runAvg speedWind from/ knotsBaromVisibWave heightAir tempDewpointWater temp
2014-Nov-27 03:34N 35°29' E 139°39'3 3.4
2014-Nov-27 02:34N 35°26' E 139°42'1 0.9
2014-Nov-27 01:34N 35°26' E 139°42'0 0.1
2014-Nov-27 00:34N 35°26' E 139°42'4 3.7
2014-Nov-26 23:33N 35°29' E 139°39'2 2.1
2014-Nov-26 22:33N 35°27' E 139°40'3 2.8
2014-Nov-26 21:33N 35°26' E 139°44'4 4.5
2014-Nov-26 20:34N 35°27' E 139°39'0 0.0
2014-Nov-26 19:34N 35°27' E 139°39'0 0.0
2014-Nov-26 18:33N 35°27' E 139°39'0 0.0
2014-Nov-26 17:33N 35°27' E 139°39'0 0.0
2014-Nov-26 16:33N 35°27' E 139°39'0 0.0
2014-Nov-26 15:33N 35°27' E 139°39'0 0.0
2014-Nov-26 14:33N 35°27' E 139°39'0 0.0
2014-Nov-26 13:34N 35°27' E 139°39'0 0.0
2014-Nov-26 12:33N 35°27' E 139°39'0 0.0
2014-Nov-26 11:34N 35°27' E 139°39'0 0.0
2014-Nov-26 10:34N 35°27' E 139°39'2 1.8
2014-Nov-26 09:33N 35°27' E 139°41'1 0.7
2014-Nov-26 08:33N 35°27' E 139°41'1 1.0
2014-Nov-26 07:34N 35°27' E 139°42'5 4.5
2014-Nov-26 06:32N 35°29' E 139°47'1 1.2
2014-Nov-26 05:24N 35°31' E 139°46'2 2.8
2014-Nov-26 04:33N 35°30' E 139°43'3 2.7
2014-Nov-26 03:34N 35°27' E 139°43'2 2.0
2014-Nov-26 02:34N 35°28' E 139°41'0 0.0
2014-Nov-26 01:34N 35°28' E 139°41'0 0.0
2014-Nov-26 00:33N 35°28' E 139°41'3 2.9
2014-Nov-25 23:33N 35°30' E 139°43'3 3.5
2014-Nov-25 22:34N 35°26' E 139°44'5 4.8
2014-Nov-25 21:34N 35°27' E 139°39'0 0.0
2014-Nov-25 20:33N 35°27' E 139°39'0 0.0
2014-Nov-25 19:33N 35°27' E 139°39'0 0.0
2014-Nov-25 18:33N 35°27' E 139°39'0 0.0
2014-Nov-25 17:33N 35°27' E 139°39'0 0.0
2014-Nov-25 16:34N 35°27' E 139°39'0 0.0
2014-Nov-25 15:34N 35°27' E 139°39'0 0.0
2014-Nov-25 14:33N 35°27' E 139°39'0 0.0
2014-Nov-25 13:33N 35°27' E 139°39'0 0.0
2014-Nov-25 12:34N 35°27' E 139°39'0 0.0
2014-Nov-25 11:33N 35°27' E 139°39'0 0.0
2014-Nov-25 10:34N 35°27' E 139°39'1 1.4
2014-Nov-25 09:34N 35°27' E 139°40'1 1.1
2014-Nov-25 08:33N 35°28' E 139°41'0 0.5
2014-Nov-25 07:33N 35°28' E 139°42'2 1.9
2014-Nov-25 06:33N 35°29' E 139°43'3 3.4
2014-Nov-25 05:34N 35°26' E 139°44'3 3.3
2014-Nov-25 04:33N 35°27' E 139°40'1 1.3
2014-Nov-25 03:34N 35°27' E 139°39'0 0.0
2014-Nov-25 02:34N 35°27' E 139°39'0 0.0
2014-Nov-25 01:34N 35°27' E 139°39'0 0.0
2014-Nov-25 00:34N 35°27' E 139°39'1 1.2
2014-Nov-24 23:33N 35°27' E 139°40'2 2.3
2014-Nov-24 22:34N 35°26' E 139°42'3 3.4
2014-Nov-24 21:34N 35°27' E 139°38'0 0.0
2014-Nov-24 20:34N 35°27' E 139°38'0 0.0
2014-Nov-24 19:34N 35°27' E 139°38'0 0.0
2014-Nov-24 18:34N 35°27' E 139°38'0 0.0
2014-Nov-24 17:34N 35°27' E 139°38'0 0.0
2014-Nov-24 16:34N 35°27' E 139°38'0 0.0
2014-Nov-24 15:34N 35°27' E 139°38'0 0.0
2014-Nov-24 14:34N 35°27' E 139°38'0 0.0
2014-Nov-24 13:34N 35°27' E 139°38'0 0.0
2014-Nov-24 12:33N 35°27' E 139°38'0 0.0
2014-Nov-24 11:34N 35°27' E 139°38'0 0.0
2014-Nov-24 10:33N 35°27' E 139°38'0 0.0
2014-Nov-24 09:34N 35°27' E 139°38'0 0.0
2014-Nov-24 08:34N 35°27' E 139°38'0 0.0
2014-Nov-24 07:33N 35°27' E 139°38'0 0.0
2014-Nov-24 06:34N 35°27' E 139°38'0 0.0
2014-Nov-24 05:33N 35°27' E 139°38'0 0.0
2014-Nov-24 04:34N 35°27' E 139°38'0 0.0
2014-Nov-24 03:33N 35°27' E 139°38'0 0.0
2014-Nov-24 02:34N 35°27' E 139°38'0 0.0
2014-Nov-24 01:33N 35°27' E 139°38'0 0.0
2014-Nov-24 00:34N 35°27' E 139°38'0 0.0
2014-Nov-23 23:33N 35°27' E 139°38'0 0.0
2014-Nov-23 22:33N 35°27' E 139°38'0 0.0
2014-Nov-23 21:33N 35°27' E 139°38'0 0.0
2014-Nov-23 20:33N 35°27' E 139°38'0 0.0
2014-Nov-23 19:33N 35°27' E 139°38'0 0.0
2014-Nov-23 18:34N 35°27' E 139°38'0 0.0
2014-Nov-23 17:33N 35°27' E 139°38'0 0.0
2014-Nov-23 16:33N 35°27' E 139°38'0 0.0
2014-Nov-23 15:34N 35°27' E 139°38'0 0.0
2014-Nov-23 14:34N 35°27' E 139°38'0 0.0
2014-Nov-23 13:34N 35°27' E 139°38'0 0.0
2014-Nov-23 12:34N 35°27' E 139°38'0 0.0
2014-Nov-23 11:33N 35°27' E 139°38'0 0.0
2014-Nov-23 10:34N 35°27' E 139°38'0 0.0
2014-Nov-23 09:34N 35°27' E 139°38'0 0.0
2014-Nov-23 08:34N 35°27' E 139°38'0 0.0
2014-Nov-23 07:33N 35°27' E 139°38'0 0.0
2014-Nov-23 06:33N 35°27' E 139°38'0 0.0
2014-Nov-23 05:33N 35°27' E 139°38'0 0.0
2014-Nov-23 04:33N 35°27' E 139°38'0 0.0
2014-Nov-23 03:34N 35°27' E 139°38'0 0.0
2014-Nov-23 02:33N 35°27' E 139°38'0 0.0
2014-Nov-23 01:34N 35°27' E 139°38'0 0.0
2014-Nov-23 00:34N 35°27' E 139°38'2 2.1
2014-Nov-22 23:34N 35°28' E 139°41'3 2.6
2014-Nov-22 22:34N 35°30' E 139°44'3 3.0
2014-Nov-22 21:34N 35°27' E 139°43'1 1.2
2014-Nov-22 20:34N 35°28' E 139°42'2 2.1
2014-Nov-22 19:34N 35°27' E 139°39'0 0.0
2014-Nov-22 18:33N 35°27' E 139°39'0 0.0
2014-Nov-22 17:34N 35°27' E 139°39'0 0.0
2014-Nov-22 16:33N 35°27' E 139°39'0 0.0
2014-Nov-22 15:33N 35°27' E 139°39'0 0.0
2014-Nov-22 14:34N 35°27' E 139°39'0 0.0
2014-Nov-22 13:34N 35°27' E 139°39'0 0.0
2014-Nov-22 12:33N 35°27' E 139°39'0 0.0
2014-Nov-22 11:34N 35°27' E 139°39'0 0.0
2014-Nov-22 10:34N 35°27' E 139°39'1 0.9
2014-Nov-22 09:34N 35°27' E 139°40'3 3.1
2014-Nov-22 08:34N 35°26' E 139°44'2 1.5
2014-Nov-22 07:34N 35°27' E 139°44'3 3.0
2014-Nov-22 06:33N 35°27' E 139°41'2 2.1
2014-Nov-22 05:34N 35°27' E 139°38'0 0.0
2014-Nov-22 04:34N 35°27' E 139°38'0 0.0
2014-Nov-22 03:34N 35°27' E 139°38'0 0.0
2014-Nov-22 02:33N 35°27' E 139°38'0 0.0
2014-Nov-22 01:34N 35°27' E 139°38'0 0.0
2014-Nov-22 00:34N 35°27' E 139°38'1 1.3
2014-Nov-21 23:34N 35°28' E 139°40'2 2.4
2014-Nov-21 22:34N 35°27' E 139°43'4 3.6
2014-Nov-21 21:33N 35°27' E 139°38'0 0.0
2014-Nov-21 20:34N 35°27' E 139°38'0 0.0
2014-Nov-21 19:33N 35°27' E 139°38'0 0.0
2014-Nov-21 18:34N 35°27' E 139°38'0 0.0
2014-Nov-21 17:33N 35°27' E 139°38'0 0.0
2014-Nov-21 16:33N 35°27' E 139°38'0 0.0
2014-Nov-21 15:34N 35°27' E 139°38'0 0.0
2014-Nov-21 14:34N 35°27' E 139°38'0 0.0
2014-Nov-21 13:34N 35°27' E 139°38'0 0.0
2014-Nov-21 12:33N 35°27' E 139°38'0 0.0
2014-Nov-21 11:33N 35°27' E 139°38'0 0.0
2014-Nov-21 10:33N 35°27' E 139°38'0 0.0
2014-Nov-21 09:34N 35°27' E 139°38'0 0.0
2014-Nov-21 08:34N 35°27' E 139°38'0 0.0
2014-Nov-21 07:34N 35°27' E 139°38'0 0.0
2014-Nov-21 06:33N 35°27' E 139°38'2 2.2
2014-Nov-21 05:33N 35°26' E 139°41'2 1.9
2014-Nov-21 04:34N 35°26' E 139°43'3 3.1
2014-Nov-21 03:34N 35°27' E 139°40'2 2.2
2014-Nov-21 02:34N 35°27' E 139°42'0 0.0
2014-Nov-21 01:34N 35°27' E 139°42'0 0.0
2014-Nov-21 00:34N 35°27' E 139°42'1 0.7
2014-Nov-20 23:34N 35°28' E 139°42'2 1.5
2014-Nov-20 22:34N 35°27' E 139°44'1 0.6
2014-Nov-20 21:33N 35°27' E 139°44'2 1.8
2014-Nov-20 20:34N 35°28' E 139°42'3 2.8
2014-Nov-20 19:34N 35°27' E 139°38'0 0.0
2014-Nov-20 18:34N 35°27' E 139°38'0 0.0
2014-Nov-20 17:34N 35°27' E 139°38'0 0.0
2014-Nov-20 16:34N 35°27' E 139°38'0 0.0
2014-Nov-20 15:34N 35°27' E 139°38'0 0.0
2014-Nov-20 14:34N 35°27' E 139°38'0 0.0
2014-Nov-20 13:34N 35°27' E 139°38'0 0.0
2014-Nov-20 12:34N 35°27' E 139°38'0 0.0
2014-Nov-20 11:34N 35°27' E 139°38'0 0.0
2014-Nov-20 10:34N 35°27' E 139°38'4 3.8
2014-Nov-20 09:34N 35°24' E 139°41'1 1.0
2014-Nov-20 08:34N 35°23' E 139°42'4 3.7
2014-Nov-20 07:33N 35°27' E 139°41'2 1.9
2014-Nov-20 06:33N 35°27' E 139°38'0 0.0
2014-Nov-20 05:34N 35°27' E 139°38'0 0.0
2014-Nov-20 04:33N 35°27' E 139°38'0 0.0
2014-Nov-20 03:34N 35°27' E 139°38'0 0.0
2014-Nov-20 02:33N 35°27' E 139°38'0 0.0
2014-Nov-20 01:34N 35°27' E 139°38'3 3.1
2014-Nov-20 00:33N 35°26' E 139°42'3 0.5
2014-Nov-19 18:16N 35°27' E 139°38'0 0.0
2014-Nov-19 17:33N 35°27' E 139°38'0 0.0
2014-Nov-19 16:34N 35°27' E 139°38'0 0.0
2014-Nov-19 15:33N 35°27' E 139°38'0 0.0
2014-Nov-19 14:34N 35°27' E 139°38'0 0.0
2014-Nov-19 13:34N 35°27' E 139°38'0 0.0
2014-Nov-19 12:34N 35°27' E 139°38'0 0.0
2014-Nov-19 11:33N 35°27' E 139°38'0 0.0
2014-Nov-19 10:34N 35°27' E 139°38'0 0.0
2014-Nov-19 09:33N 35°27' E 139°38'0 0.0
2014-Nov-19 08:34N 35°27' E 139°38'4 3.6
2014-Nov-19 07:33N 35°27' E 139°43'3 2.8
2014-Nov-19 06:33N 35°30' E 139°44'5 5.0
2014-Nov-19 05:34N 35°27' E 139°38'0 0.0
2014-Nov-19 04:34N 35°27' E 139°38'0 0.0
2014-Nov-19 03:33N 35°27' E 139°38'0 0.0
2014-Nov-19 02:34N 35°27' E 139°38'0 0.0
2014-Nov-19 01:34N 35°27' E 139°38'3 3.0
2014-Nov-19 00:33N 35°25' E 139°41'0 0.2
2014-Nov-18 23:33N 35°25' E 139°41'2 2.2
2014-Nov-18 22:34N 35°27' E 139°42'1 0.8
2014-Nov-18 21:34N 35°27' E 139°43'4 3.8
2014-Nov-18 20:33N 35°27' E 139°38'0 0.0
2014-Nov-18 19:34N 35°27' E 139°38'0 0.0
2014-Nov-18 18:33N 35°27' E 139°38'0 0.0
2014-Nov-18 17:34N 35°27' E 139°38'0 0.0
2014-Nov-18 16:34N 35°27' E 139°38'0 0.0
2014-Nov-18 15:34N 35°27' E 139°38'0 0.0
2014-Nov-18 14:34N 35°27' E 139°38'0 0.0
2014-Nov-18 13:34N 35°27' E 139°38'0 0.0
2014-Nov-18 12:34N 35°27' E 139°38'0 0.0
2014-Nov-18 11:34N 35°27' E 139°38'0 0.0
2014-Nov-18 10:34N 35°27' E 139°38'0 0.0
2014-Nov-18 09:33N 35°27' E 139°38'0 0.0
2014-Nov-18 08:34N 35°27' E 139°38'4 4.2
2014-Nov-18 07:34N 35°27' E 139°44'4 4.3
2014-Nov-18 06:31N 35°31' E 139°46'2 1.8
2014-Nov-18 05:34N 35°30' E 139°47'0 0.2
2014-Nov-18 04:33N 35°29' E 139°47'1 1.5
2014-Nov-18 03:34N 35°30' E 139°45'3 3.2
2014-Nov-18 02:34N 35°27' E 139°44'0 0.1
2014-Nov-18 01:34N 35°28' E 139°44'4 4.1
2014-Nov-18 00:31N 35°32' E 139°46'5 4.8
2014-Nov-17 23:34N 35°28' E 139°42'1 1.4
2014-Nov-17 22:34N 35°27' E 139°44'4 3.8
2014-Nov-17 21:32N 35°31' E 139°46'7 7.3
2014-Nov-17 20:34N 35°27' E 139°38'0 0.0
2014-Nov-17 19:34N 35°27' E 139°38'0 0.0
2014-Nov-17 18:33N 35°27' E 139°38'0 0.0
2014-Nov-17 17:34N 35°27' E 139°38'0 0.0
2014-Nov-17 16:33N 35°27' E 139°38'0 0.0
2014-Nov-17 15:34N 35°27' E 139°38'0 0.0
2014-Nov-17 14:34N 35°27' E 139°38'0 0.0
2014-Nov-17 13:33N 35°27' E 139°38'0 0.0
2014-Nov-17 12:33N 35°27' E 139°38'0 0.0
2014-Nov-17 11:33N 35°27' E 139°38'0 0.0
2014-Nov-17 10:34N 35°27' E 139°38'0 0.0
2014-Nov-17 09:33N 35°27' E 139°38'0 0.0
2014-Nov-17 08:34N 35°27' E 139°38'0 0.0
2014-Nov-17 07:34N 35°27' E 139°38'0 0.0
2014-Nov-17 06:34N 35°27' E 139°38'1 0.6
2014-Nov-17 05:34N 35°28' E 139°39'5 5.3
2014-Nov-17 04:34N 35°30' E 139°45'  
Track history (hours):
 
Tides and Currents Weather Stations Pressure Air Temp Water Temp Dewpoint Dewpoint Depression Visibility Wind Speed Wind Dir Waves Ship Positions

Kamakuramaru

Last reported at 2014-Nov-27 03:34 UTC. Time now 2014-Nov-27 04:29 UTC.
Position N 35°29' E 139°39'.

Length 31 m; draft 2.5 m.

Type: Tug. MMSI: 431000439.

Date/timePositionNaut miles runAvg speedWind from/ knotsBaromVisibWave heightAir tempDewpointWater temp
2014-Nov-27 03:34N 35°29' E 139°39'3 3.4
2014-Nov-27 02:34N 35°26' E 139°42'1 0.9
2014-Nov-27 01:34N 35°26' E 139°42'0 0.1
2014-Nov-27 00:34N 35°26' E 139°42'4 3.7
2014-Nov-26 23:33N 35°29' E 139°39'2 2.1
2014-Nov-26 22:33N 35°27' E 139°40'3 2.8
2014-Nov-26 21:33N 35°26' E 139°44'4 4.5
2014-Nov-26 20:34N 35°27' E 139°39'0 0.0
2014-Nov-26 19:34N 35°27' E 139°39'0 0.0
2014-Nov-26 18:33N 35°27' E 139°39'0 0.0
2014-Nov-26 17:33N 35°27' E 139°39'0 0.0
2014-Nov-26 16:33N 35°27' E 139°39'0 0.0
2014-Nov-26 15:33N 35°27' E 139°39'0 0.0
2014-Nov-26 14:33N 35°27' E 139°39'0 0.0
2014-Nov-26 13:34N 35°27' E 139°39'0 0.0
2014-Nov-26 12:33N 35°27' E 139°39'0 0.0
2014-Nov-26 11:34N 35°27' E 139°39'0 0.0
2014-Nov-26 10:34N 35°27' E 139°39'2 1.8
2014-Nov-26 09:33N 35°27' E 139°41'1 0.7
2014-Nov-26 08:33N 35°27' E 139°41'1 1.0
2014-Nov-26 07:34N 35°27' E 139°42'5 4.5
2014-Nov-26 06:32N 35°29' E 139°47'1 1.2
2014-Nov-26 05:24N 35°31' E 139°46'2 2.8
2014-Nov-26 04:33N 35°30' E 139°43'3 2.7
2014-Nov-26 03:34N 35°27' E 139°43'2 2.0
2014-Nov-26 02:34N 35°28' E 139°41'0 0.0
2014-Nov-26 01:34N 35°28' E 139°41'0 0.0
2014-Nov-26 00:33N 35°28' E 139°41'3 2.9
2014-Nov-25 23:33N 35°30' E 139°43'3 3.5
2014-Nov-25 22:34N 35°26' E 139°44'5 4.8
2014-Nov-25 21:34N 35°27' E 139°39'0 0.0
2014-Nov-25 20:33N 35°27' E 139°39'0 0.0
2014-Nov-25 19:33N 35°27' E 139°39'0 0.0
2014-Nov-25 18:33N 35°27' E 139°39'0 0.0
2014-Nov-25 17:33N 35°27' E 139°39'0 0.0
2014-Nov-25 16:34N 35°27' E 139°39'0 0.0
2014-Nov-25 15:34N 35°27' E 139°39'0 0.0
2014-Nov-25 14:33N 35°27' E 139°39'0 0.0
2014-Nov-25 13:33N 35°27' E 139°39'0 0.0
2014-Nov-25 12:34N 35°27' E 139°39'0 0.0
2014-Nov-25 11:33N 35°27' E 139°39'0 0.0
2014-Nov-25 10:34N 35°27' E 139°39'1 1.4
2014-Nov-25 09:34N 35°27' E 139°40'1 1.1
2014-Nov-25 08:33N 35°28' E 139°41'0 0.5
2014-Nov-25 07:33N 35°28' E 139°42'2 1.9
2014-Nov-25 06:33N 35°29' E 139°43'3 3.4
2014-Nov-25 05:34N 35°26' E 139°44'3 3.3
2014-Nov-25 04:33N 35°27' E 139°40'1 1.3
2014-Nov-25 03:34N 35°27' E 139°39'0 0.0
2014-Nov-25 02:34N 35°27' E 139°39'0 0.0
2014-Nov-25 01:34N 35°27' E 139°39'0 0.0
2014-Nov-25 00:34N 35°27' E 139°39'1 1.2
2014-Nov-24 23:33N 35°27' E 139°40'2 2.3
2014-Nov-24 22:34N 35°26' E 139°42'3 3.4
2014-Nov-24 21:34N 35°27' E 139°38'0 0.0
2014-Nov-24 20:34N 35°27' E 139°38'0 0.0
2014-Nov-24 19:34N 35°27' E 139°38'0 0.0
2014-Nov-24 18:34N 35°27' E 139°38'0 0.0
2014-Nov-24 17:34N 35°27' E 139°38'0 0.0
2014-Nov-24 16:34N 35°27' E 139°38'0 0.0
2014-Nov-24 15:34N 35°27' E 139°38'0 0.0
2014-Nov-24 14:34N 35°27' E 139°38'0 0.0
2014-Nov-24 13:34N 35°27' E 139°38'0 0.0
2014-Nov-24 12:33N 35°27' E 139°38'0 0.0
2014-Nov-24 11:34N 35°27' E 139°38'0 0.0
2014-Nov-24 10:33N 35°27' E 139°38'0 0.0
2014-Nov-24 09:34N 35°27' E 139°38'0 0.0
2014-Nov-24 08:34N 35°27' E 139°38'0 0.0
2014-Nov-24 07:33N 35°27' E 139°38'0 0.0
2014-Nov-24 06:34N 35°27' E 139°38'0 0.0
2014-Nov-24 05:33N 35°27' E 139°38'0 0.0
2014-Nov-24 04:34N 35°27' E 139°38'0 0.0
2014-Nov-24 03:33N 35°27' E 139°38'0 0.0
2014-Nov-24 02:34N 35°27' E 139°38'0 0.0
2014-Nov-24 01:33N 35°27' E 139°38'0 0.0
2014-Nov-24 00:34N 35°27' E 139°38'0 0.0
2014-Nov-23 23:33N 35°27' E 139°38'0 0.0
2014-Nov-23 22:33N 35°27' E 139°38'0 0.0
2014-Nov-23 21:33N 35°27' E 139°38'0 0.0
2014-Nov-23 20:33N 35°27' E 139°38'0 0.0
2014-Nov-23 19:33N 35°27' E 139°38'0 0.0
2014-Nov-23 18:34N 35°27' E 139°38'0 0.0
2014-Nov-23 17:33N 35°27' E 139°38'0 0.0
2014-Nov-23 16:33N 35°27' E 139°38'0 0.0
2014-Nov-23 15:34N 35°27' E 139°38'0 0.0
2014-Nov-23 14:34N 35°27' E 139°38'0 0.0
2014-Nov-23 13:34N 35°27' E 139°38'0 0.0
2014-Nov-23 12:34N 35°27' E 139°38'0 0.0
2014-Nov-23 11:33N 35°27' E 139°38'0 0.0
2014-Nov-23 10:34N 35°27' E 139°38'0 0.0
2014-Nov-23 09:34N 35°27' E 139°38'0 0.0
2014-Nov-23 08:34N 35°27' E 139°38'0 0.0
2014-Nov-23 07:33N 35°27' E 139°38'0 0.0
2014-Nov-23 06:33N 35°27' E 139°38'0 0.0
2014-Nov-23 05:33N 35°27' E 139°38'0 0.0
2014-Nov-23 04:33N 35°27' E 139°38'0 0.0
2014-Nov-23 03:34N 35°27' E 139°38'0 0.0
2014-Nov-23 02:33N 35°27' E 139°38'0 0.0
2014-Nov-23 01:34N 35°27' E 139°38'0 0.0
2014-Nov-23 00:34N 35°27' E 139°38'2 2.1
2014-Nov-22 23:34N 35°28' E 139°41'3 2.6
2014-Nov-22 22:34N 35°30' E 139°44'3 3.0
2014-Nov-22 21:34N 35°27' E 139°43'1 1.2
2014-Nov-22 20:34N 35°28' E 139°42'2 2.1
2014-Nov-22 19:34N 35°27' E 139°39'0 0.0
2014-Nov-22 18:33N 35°27' E 139°39'0 0.0
2014-Nov-22 17:34N 35°27' E 139°39'0 0.0
2014-Nov-22 16:33N 35°27' E 139°39'0 0.0
2014-Nov-22 15:33N 35°27' E 139°39'0 0.0
2014-Nov-22 14:34N 35°27' E 139°39'0 0.0
2014-Nov-22 13:34N 35°27' E 139°39'0 0.0
2014-Nov-22 12:33N 35°27' E 139°39'0 0.0
2014-Nov-22 11:34N 35°27' E 139°39'0 0.0
2014-Nov-22 10:34N 35°27' E 139°39'1 0.9
2014-Nov-22 09:34N 35°27' E 139°40'3 3.1
2014-Nov-22 08:34N 35°26' E 139°44'2 1.5
2014-Nov-22 07:34N 35°27' E 139°44'3 3.0
2014-Nov-22 06:33N 35°27' E 139°41'2 2.1
2014-Nov-22 05:34N 35°27' E 139°38'0 0.0
2014-Nov-22 04:34N 35°27' E 139°38'0 0.0
2014-Nov-22 03:34N 35°27' E 139°38'0 0.0
2014-Nov-22 02:33N 35°27' E 139°38'0 0.0
2014-Nov-22 01:34N 35°27' E 139°38'0 0.0
2014-Nov-22 00:34N 35°27' E 139°38'1 1.3
2014-Nov-21 23:34N 35°28' E 139°40'2 2.4
2014-Nov-21 22:34N 35°27' E 139°43'4 3.6
2014-Nov-21 21:33N 35°27' E 139°38'0 0.0
2014-Nov-21 20:34N 35°27' E 139°38'0 0.0
2014-Nov-21 19:33N 35°27' E 139°38'0 0.0
2014-Nov-21 18:34N 35°27' E 139°38'0 0.0
2014-Nov-21 17:33N 35°27' E 139°38'0 0.0
2014-Nov-21 16:33N 35°27' E 139°38'0 0.0
2014-Nov-21 15:34N 35°27' E 139°38'0 0.0
2014-Nov-21 14:34N 35°27' E 139°38'0 0.0
2014-Nov-21 13:34N 35°27' E 139°38'0 0.0
2014-Nov-21 12:33N 35°27' E 139°38'0 0.0
2014-Nov-21 11:33N 35°27' E 139°38'0 0.0
2014-Nov-21 10:33N 35°27' E 139°38'0 0.0
2014-Nov-21 09:34N 35°27' E 139°38'0 0.0
2014-Nov-21 08:34N 35°27' E 139°38'0 0.0
2014-Nov-21 07:34N 35°27' E 139°38'0 0.0
2014-Nov-21 06:33N 35°27' E 139°38'2 2.2
2014-Nov-21 05:33N 35°26' E 139°41'2 1.9
2014-Nov-21 04:34N 35°26' E 139°43'3 3.1
2014-Nov-21 03:34N 35°27' E 139°40'2 2.2
2014-Nov-21 02:34N 35°27' E 139°42'0 0.0
2014-Nov-21 01:34N 35°27' E 139°42'0 0.0
2014-Nov-21 00:34N 35°27' E 139°42'1 0.7
2014-Nov-20 23:34N 35°28' E 139°42'2 1.5
2014-Nov-20 22:34N 35°27' E 139°44'1 0.6
2014-Nov-20 21:33N 35°27' E 139°44'2 1.8
2014-Nov-20 20:34N 35°28' E 139°42'3 2.8
2014-Nov-20 19:34N 35°27' E 139°38'0 0.0
2014-Nov-20 18:34N 35°27' E 139°38'0 0.0
2014-Nov-20 17:34N 35°27' E 139°38'0 0.0
2014-Nov-20 16:34N 35°27' E 139°38'0 0.0
2014-Nov-20 15:34N 35°27' E 139°38'0 0.0
2014-Nov-20 14:34N 35°27' E 139°38'0 0.0
2014-Nov-20 13:34N 35°27' E 139°38'0 0.0
2014-Nov-20 12:34N 35°27' E 139°38'0 0.0
2014-Nov-20 11:34N 35°27' E 139°38'0 0.0
2014-Nov-20 10:34N 35°27' E 139°38'4 3.8
2014-Nov-20 09:34N 35°24' E 139°41'1 1.0
2014-Nov-20 08:34N 35°23' E 139°42'4 3.7
2014-Nov-20 07:33N 35°27' E 139°41'2 1.9
2014-Nov-20 06:33N 35°27' E 139°38'0 0.0
2014-Nov-20 05:34N 35°27' E 139°38'0 0.0
2014-Nov-20 04:33N 35°27' E 139°38'0 0.0
2014-Nov-20 03:34N 35°27' E 139°38'0 0.0
2014-Nov-20 02:33N 35°27' E 139°38'0 0.0
2014-Nov-20 01:34N 35°27' E 139°38'3 3.1
2014-Nov-20 00:33N 35°26' E 139°42'3 0.5
2014-Nov-19 18:16N 35°27' E 139°38'0 0.0
2014-Nov-19 17:33N 35°27' E 139°38'0 0.0
2014-Nov-19 16:34N 35°27' E 139°38'0 0.0
2014-Nov-19 15:33N 35°27' E 139°38'0 0.0
2014-Nov-19 14:34N 35°27' E 139°38'0 0.0
2014-Nov-19 13:34N 35°27' E 139°38'0 0.0
2014-Nov-19 12:34N 35°27' E 139°38'0 0.0
2014-Nov-19 11:33N 35°27' E 139°38'0 0.0
2014-Nov-19 10:34N 35°27' E 139°38'0 0.0
2014-Nov-19 09:33N 35°27' E 139°38'0 0.0
2014-Nov-19 08:34N 35°27' E 139°38'4 3.6
2014-Nov-19 07:33N 35°27' E 139°43'3 2.8
2014-Nov-19 06:33N 35°30' E 139°44'5 5.0
2014-Nov-19 05:34N 35°27' E 139°38'0 0.0
2014-Nov-19 04:34N 35°27' E 139°38'0 0.0
2014-Nov-19 03:33N 35°27' E 139°38'0 0.0
2014-Nov-19 02:34N 35°27' E 139°38'0 0.0
2014-Nov-19 01:34N 35°27' E 139°38'3 3.0
2014-Nov-19 00:33N 35°25' E 139°41'0 0.2
2014-Nov-18 23:33N 35°25' E 139°41'2 2.2
2014-Nov-18 22:34N 35°27' E 139°42'1 0.8
2014-Nov-18 21:34N 35°27' E 139°43'4 3.8
2014-Nov-18 20:33N 35°27' E 139°38'0 0.0
2014-Nov-18 19:34N 35°27' E 139°38'0 0.0
2014-Nov-18 18:33N 35°27' E 139°38'0 0.0
2014-Nov-18 17:34N 35°27' E 139°38'0 0.0
2014-Nov-18 16:34N 35°27' E 139°38'0 0.0
2014-Nov-18 15:34N 35°27' E 139°38'0 0.0
2014-Nov-18 14:34N 35°27' E 139°38'0 0.0
2014-Nov-18 13:34N 35°27' E 139°38'0 0.0
2014-Nov-18 12:34N 35°27' E 139°38'0 0.0
2014-Nov-18 11:34N 35°27' E 139°38'0 0.0
2014-Nov-18 10:34N 35°27' E 139°38'0 0.0
2014-Nov-18 09:33N 35°27' E 139°38'0 0.0
2014-Nov-18 08:34N 35°27' E 139°38'4 4.2
2014-Nov-18 07:34N 35°27' E 139°44'4 4.3
2014-Nov-18 06:31N 35°31' E 139°46'2 1.8
2014-Nov-18 05:34N 35°30' E 139°47'0 0.2
2014-Nov-18 04:33N 35°29' E 139°47'1 1.5
2014-Nov-18 03:34N 35°30' E 139°45'3 3.2
2014-Nov-18 02:34N 35°27' E 139°44'0 0.1
2014-Nov-18 01:34N 35°28' E 139°44'4 4.1
2014-Nov-18 00:31N 35°32' E 139°46'5 4.8
2014-Nov-17 23:34N 35°28' E 139°42'1 1.4
2014-Nov-17 22:34N 35°27' E 139°44'4 3.8
2014-Nov-17 21:32N 35°31' E 139°46'7 7.3
2014-Nov-17 20:34N 35°27' E 139°38'0 0.0
2014-Nov-17 19:34N 35°27' E 139°38'0 0.0
2014-Nov-17 18:33N 35°27' E 139°38'0 0.0
2014-Nov-17 17:34N 35°27' E 139°38'0 0.0
2014-Nov-17 16:33N 35°27' E 139°38'0 0.0
2014-Nov-17 15:34N 35°27' E 139°38'0 0.0
2014-Nov-17 14:34N 35°27' E 139°38'0 0.0
2014-Nov-17 13:33N 35°27' E 139°38'0 0.0
2014-Nov-17 12:33N 35°27' E 139°38'0 0.0
2014-Nov-17 11:33N 35°27' E 139°38'0 0.0
2014-Nov-17 10:34N 35°27' E 139°38'0 0.0
2014-Nov-17 09:33N 35°27' E 139°38'0 0.0
2014-Nov-17 08:34N 35°27' E 139°38'0 0.0
2014-Nov-17 07:34N 35°27' E 139°38'0 0.0
2014-Nov-17 06:34N 35°27' E 139°38'1 0.6
2014-Nov-17 05:34N 35°28' E 139°39'5 5.3
2014-Nov-17 04:34N 35°30' E 139°45'  

Dump ship's entire track history